createdAt,value
2023-01-07T00:01:33.249Z,7.50
2023-01-07T00:04:01.529Z,6.15
2023-01-07T00:06:31.070Z,6.78
2023-01-07T00:08:58.243Z,7.47
2023-01-07T00:11:36.732Z,8.10
2023-01-07T00:14:05.372Z,5.43
2023-01-07T00:16:33.627Z,5.70
2023-01-07T00:19:02.251Z,6.10
2023-01-07T00:21:30.326Z,5.75
2023-01-07T00:23:59.805Z,5.95
2023-01-07T00:26:29.532Z,6.22
2023-01-07T00:28:56.534Z,6.90
2023-01-07T00:31:28.479Z,6.40
2023-01-07T00:33:55.267Z,6.70
2023-01-07T00:36:23.548Z,7.43
2023-01-07T00:39:04.730Z,7.25
2023-01-07T00:41:31.406Z,5.95
2023-01-07T00:43:58.092Z,6.30
2023-01-07T00:46:24.794Z,7.13
2023-01-07T00:48:51.618Z,5.80
2023-01-07T00:51:19.366Z,6.55
2023-01-07T00:53:46.644Z,7.72
2023-01-07T00:56:14.974Z,6.63
2023-01-07T00:58:42.009Z,6.70
2023-01-07T01:01:10.691Z,6.38
2023-01-07T01:03:38.461Z,7.93
2023-01-07T01:06:08.102Z,6.93
2023-01-07T01:08:34.754Z,6.43
2023-01-07T01:11:06.079Z,6.20
2023-01-07T01:13:34.056Z,5.97
2023-01-07T01:16:01.384Z,5.82
2023-01-07T01:18:28.266Z,5.88
2023-01-07T01:20:55.102Z,6.78
2023-01-07T01:23:22.521Z,5.60
2023-01-07T01:25:49.290Z,6.57
2023-01-07T01:28:15.993Z,5.25
2023-01-07T01:30:42.847Z,5.55
2023-01-07T01:33:09.371Z,5.43
2023-01-07T01:35:40.062Z,5.95
2023-01-07T01:38:06.746Z,5.55
2023-01-07T01:40:33.562Z,5.97
2023-01-07T01:43:00.174Z,5.70
2023-01-07T01:45:27.007Z,6.40
2023-01-07T01:47:59.545Z,5.65
2023-01-07T01:50:32.010Z,5.93
2023-01-07T01:53:10.831Z,5.65
2023-01-07T01:55:43.556Z,5.90
2023-01-07T01:58:14.827Z,6.22
2023-01-07T02:00:42.772Z,5.13
2023-01-07T02:03:13.715Z,5.75
2023-01-07T02:05:42.079Z,5.40
2023-01-07T02:08:09.681Z,5.57
2023-01-07T02:10:37.711Z,5.78
2023-01-07T02:13:31.166Z,5.32
2023-01-07T02:16:05.436Z,4.82
2023-01-07T02:18:44.216Z,6.53
2023-01-07T02:21:17.871Z,6.28
2023-01-07T02:24:02.560Z,6.50
2023-01-07T02:27:05.127Z,6.70
2023-01-07T02:30:02.713Z,6.10
2023-01-07T02:32:55.717Z,6.95
2023-01-07T02:35:45.415Z,7.38
2023-01-07T02:38:27.106Z,9.73
2023-01-07T02:41:17.824Z,8.32
2023-01-07T02:43:59.855Z,9.70
2023-01-07T02:46:47.426Z,8.18
2023-01-07T02:49:17.048Z,8.95
2023-01-07T02:51:44.033Z,7.78
2023-01-07T02:54:15.254Z,7.90
2023-01-07T02:56:53.875Z,8.35
2023-01-07T02:59:45.193Z,8.27
2023-01-07T03:02:27.029Z,9.60
2023-01-07T03:05:12.267Z,11.25
2023-01-07T03:08:01.194Z,12.30
2023-01-07T03:10:42.739Z,15.68
2023-01-07T03:13:18.310Z,12.82
2023-01-07T03:16:23.963Z,14.80
2023-01-07T03:19:01.764Z,20.50
2023-01-07T03:21:31.514Z,18.65
2023-01-07T03:23:59.069Z,20.05
2023-01-07T03:26:31.763Z,23.55
2023-01-07T03:29:00.795Z,17.40
2023-01-07T03:31:29.718Z,16.38
2023-01-07T03:34:09.844Z,15.77
2023-01-07T03:36:42.391Z,14.75
2023-01-07T03:39:12.313Z,13.25
2023-01-07T03:41:58.139Z,13.98
2023-01-07T03:44:25.177Z,15.10
2023-01-07T03:46:53.147Z,14.15
2023-01-07T03:49:20.159Z,14.27
2023-01-07T03:51:49.484Z,11.75
2023-01-07T03:54:16.234Z,11.98
2023-01-07T03:56:42.852Z,9.20
2023-01-07T03:59:09.557Z,8.32
2023-01-07T04:01:36.264Z,9.70
2023-01-07T04:04:03.683Z,9.27
2023-01-07T04:06:30.691Z,10.48
2023-01-07T04:08:57.576Z,11.88
2023-01-07T04:11:24.411Z,13.98
2023-01-07T04:13:51.201Z,9.77
2023-01-07T04:16:17.922Z,10.27
2023-01-07T04:18:44.685Z,10.93
2023-01-07T04:21:11.298Z,9.60
2023-01-07T04:23:37.914Z,8.48
2023-01-07T04:26:04.893Z,11.02
2023-01-07T04:28:31.509Z,11.35
2023-01-07T04:31:01.316Z,17.13
2023-01-07T04:33:28.190Z,16.90
2023-01-07T04:35:54.934Z,14.95
2023-01-07T04:38:21.522Z,11.75
2023-01-07T04:40:48.240Z,13.65
2023-01-07T04:43:15.076Z,13.85
2023-01-07T04:45:42.016Z,15.77
2023-01-07T04:48:08.643Z,20.08
2023-01-07T04:50:35.289Z,17.02
2023-01-07T04:53:01.961Z,16.88
2023-01-07T04:55:28.598Z,15.15
2023-01-07T04:57:55.184Z,17.58
2023-01-07T05:00:22.079Z,17.85
2023-01-07T05:02:48.711Z,13.38
2023-01-07T05:05:15.368Z,12.48
2023-01-07T05:07:42.001Z,14.68
2023-01-07T05:10:09.074Z,14.55
2023-01-07T05:12:36.331Z,14.75
2023-01-07T05:15:07.129Z,16.00
2023-01-07T05:17:33.774Z,15.35
2023-01-07T05:20:00.419Z,17.42
2023-01-07T05:22:27.129Z,16.25
2023-01-07T05:24:53.849Z,13.82
2023-01-07T05:27:20.480Z,12.00
2023-01-07T05:29:47.147Z,11.50
2023-01-07T05:32:13.778Z,11.93
2023-01-07T05:34:40.408Z,9.13
2023-01-07T05:37:07.040Z,13.25
2023-01-07T05:39:34.010Z,12.68
2023-01-07T05:42:00.772Z,15.32
2023-01-07T05:44:27.513Z,14.45
2023-01-07T05:46:54.126Z,15.20
2023-01-07T05:49:20.741Z,15.45
2023-01-07T05:51:47.390Z,12.27
2023-01-07T05:54:13.998Z,13.85
2023-01-07T05:56:40.650Z,12.82
2023-01-07T05:59:07.213Z,14.80
2023-01-07T06:01:34.112Z,13.45
2023-01-07T06:04:00.800Z,13.07
2023-01-07T06:06:27.480Z,11.70
2023-01-07T06:08:54.078Z,10.73
2023-01-07T06:11:20.834Z,10.88
2023-01-07T06:13:47.661Z,10.80
2023-01-07T06:16:14.448Z,10.95
2023-01-07T06:18:41.132Z,10.23
2023-01-07T06:21:07.724Z,9.80
2023-01-07T06:23:34.532Z,7.63
2023-01-07T06:26:01.158Z,7.88
2023-01-07T06:28:27.772Z,7.50
2023-01-07T06:30:54.545Z,6.93
2023-01-07T06:33:21.338Z,7.07
2023-01-07T06:35:48.225Z,8.23
2023-01-07T06:38:15.099Z,8.75
2023-01-07T06:40:41.802Z,7.90
2023-01-07T06:43:08.475Z,9.55
2023-01-07T06:45:35.269Z,8.90
2023-01-07T06:48:02.516Z,8.85
2023-01-07T06:50:29.496Z,9.73
2023-01-07T06:52:56.987Z,13.05
2023-01-07T06:55:23.857Z,12.57
2023-01-07T06:57:50.690Z,13.00
2023-01-07T07:00:17.564Z,18.98
2023-01-07T07:02:44.410Z,21.33
2023-01-07T07:05:11.784Z,11.05
2023-01-07T07:07:38.571Z,12.73
2023-01-07T07:10:07.626Z,13.10
2023-01-07T07:12:35.792Z,13.82
2023-01-07T07:15:02.408Z,11.45
2023-01-07T07:17:28.991Z,13.07
2023-01-07T07:19:55.661Z,13.13
2023-01-07T07:22:22.336Z,13.35
2023-01-07T07:24:49.061Z,14.00
2023-01-07T07:27:15.695Z,14.70
2023-01-07T07:29:42.397Z,14.13
2023-01-07T07:32:09.338Z,13.55
2023-01-07T07:34:36.750Z,12.85
2023-01-07T07:37:03.385Z,12.68
2023-01-07T07:39:30.045Z,11.55
2023-01-07T07:41:56.694Z,10.68
2023-01-07T07:44:23.436Z,11.70
2023-01-07T07:46:50.128Z,11.10
2023-01-07T07:49:18.831Z,12.02
2023-01-07T07:51:45.485Z,11.68
2023-01-07T07:54:12.197Z,9.60
2023-01-07T07:56:38.862Z,10.00
2023-01-07T07:59:05.608Z,10.50
2023-01-07T08:01:32.376Z,11.88
2023-01-07T08:03:59.113Z,11.25
2023-01-07T08:06:25.719Z,12.45
2023-01-07T08:08:52.340Z,11.50
2023-01-07T08:11:18.982Z,12.20
2023-01-07T08:13:45.639Z,11.70
2023-01-07T08:16:12.280Z,13.40
2023-01-07T08:18:40.024Z,13.48
2023-01-07T08:21:06.862Z,14.25
2023-01-07T08:23:34.827Z,12.77
2023-01-07T08:26:03.081Z,13.73
2023-01-07T08:28:31.320Z,13.15
2023-01-07T08:31:02.431Z,13.85
2023-01-07T08:33:29.303Z,13.00
2023-01-07T08:35:55.989Z,12.05
2023-01-07T08:38:22.753Z,11.68
2023-01-07T08:40:51.459Z,13.20
2023-01-07T08:43:18.286Z,14.15
2023-01-07T08:45:48.794Z,13.35
2023-01-07T08:48:15.451Z,13.57
2023-01-07T08:50:42.575Z,12.35
2023-01-07T08:53:09.307Z,12.77
2023-01-07T08:55:35.999Z,11.85
2023-01-07T08:58:02.604Z,11.05
2023-01-07T09:00:29.348Z,10.90
2023-01-07T09:02:56.102Z,11.57
2023-01-07T09:05:24.569Z,11.48
2023-01-07T09:07:54.853Z,12.70
2023-01-07T09:10:21.791Z,19.75
2023-01-07T09:12:48.542Z,19.98
2023-01-07T09:15:15.267Z,18.20
2023-01-07T09:17:41.936Z,19.42
2023-01-07T09:20:09.579Z,19.63
2023-01-07T09:22:37.201Z,19.70
2023-01-07T09:25:05.864Z,18.70
2023-01-07T09:27:33.055Z,19.17
2023-01-07T09:29:59.878Z,17.98
2023-01-07T09:32:27.581Z,18.55
2023-01-07T09:34:55.606Z,17.92
2023-01-07T09:37:23.165Z,16.55
2023-01-07T09:39:49.886Z,15.88
2023-01-07T09:42:38.399Z,13.35
2023-01-07T09:45:17.050Z,15.10
2023-01-07T09:47:47.871Z,11.88
2023-01-07T09:50:17.394Z,14.75
2023-01-07T09:52:48.634Z,12.70
2023-01-07T09:55:21.047Z,10.32
2023-01-07T09:57:48.079Z,9.35
2023-01-07T10:00:21.063Z,9.15
2023-01-07T10:03:12.172Z,8.80
2023-01-07T10:05:46.754Z,7.72
2023-01-07T10:08:29.197Z,8.35
2023-01-07T10:11:07.804Z,7.53
2023-01-07T10:14:25.920Z,7.35
2023-01-07T10:17:03.144Z,7.75
2023-01-07T10:19:52.255Z,7.80
2023-01-07T10:22:25.607Z,6.20
2023-01-07T10:24:57.562Z,7.00
2023-01-07T10:27:34.536Z,7.10
2023-01-07T10:30:04.370Z,6.82
2023-01-07T10:32:34.076Z,8.57
2023-01-07T10:35:01.685Z,6.75
2023-01-07T10:37:34.266Z,6.43
2023-01-07T10:40:32.187Z,11.07
2023-01-07T10:43:17.390Z,14.32
2023-01-07T10:45:56.640Z,7.55
2023-01-07T10:49:07.768Z,6.03
2023-01-07T10:51:40.216Z,5.95
2023-01-07T10:54:34.559Z,5.82
2023-01-07T10:57:08.098Z,6.93
2023-01-07T10:59:36.112Z,6.70
2023-01-07T11:02:03.875Z,5.43
2023-01-07T11:04:30.667Z,4.55
2023-01-07T11:07:04.315Z,5.50
2023-01-07T11:09:35.413Z,5.07
2023-01-07T11:12:27.463Z,4.40
2023-01-07T11:14:57.092Z,5.53
2023-01-07T11:17:53.229Z,2.72
2023-01-07T11:21:04.793Z,5.78
2023-01-07T11:23:32.962Z,2.90
2023-01-07T11:26:23.075Z,6.30
2023-01-07T11:28:53.348Z,4.00
2023-01-07T11:31:23.084Z,2.88
2023-01-07T11:34:02.337Z,3.80
2023-01-07T11:36:43.017Z,4.45
2023-01-07T11:39:18.121Z,4.15
2023-01-07T11:41:53.679Z,2.55
2023-01-07T11:44:20.568Z,4.82
2023-01-07T11:46:47.306Z,2.80
2023-01-07T11:49:43.673Z,3.00
2023-01-07T11:52:19.532Z,2.70
2023-01-07T11:54:53.421Z,3.65
2023-01-07T11:57:25.647Z,1.95
2023-01-07T12:02:32.427Z,1.95
2023-01-07T12:05:30.160Z,1.98
2023-01-07T12:07:59.176Z,1.92
2023-01-07T12:10:34.164Z,2.40
2023-01-07T12:13:03.332Z,4.68
2023-01-07T12:15:50.026Z,2.72
2023-01-07T12:18:39.688Z,3.25
2023-01-07T12:21:28.979Z,2.22
2023-01-07T12:24:16.907Z,2.00
2023-01-07T12:27:06.921Z,2.58
2023-01-07T12:29:57.507Z,2.33
2023-01-07T12:32:38.983Z,2.50
2023-01-07T12:35:26.186Z,1.73
2023-01-07T12:37:58.892Z,6.43
2023-01-07T12:40:53.821Z,1.88
2023-01-07T12:43:37.709Z,1.90
2023-01-07T12:46:12.742Z,1.70
2023-01-07T12:48:54.708Z,1.70
2023-01-07T12:51:45.664Z,2.50
2023-01-07T12:54:25.604Z,2.70
2023-01-07T12:57:11.246Z,1.83
2023-01-07T12:59:46.256Z,1.83
2023-01-07T13:02:32.401Z,1.45
2023-01-07T13:05:14.650Z,6.18
2023-01-07T13:08:25.831Z,3.97
2023-01-07T13:11:03.706Z,1.90
2023-01-07T13:13:37.746Z,2.22
2023-01-07T13:16:05.696Z,1.50
2023-01-07T13:18:32.384Z,1.30
2023-01-07T13:21:01.631Z,3.13
2023-01-07T13:23:49.245Z,2.05
2023-01-07T13:26:19.660Z,1.60
2023-01-07T13:28:52.127Z,1.45
2023-01-07T13:31:51.058Z,1.40
2023-01-07T13:34:32.676Z,2.72
2023-01-07T13:37:26.531Z,2.70
2023-01-07T13:40:08.283Z,1.65
2023-01-07T13:42:50.453Z,1.77
2023-01-07T13:45:22.077Z,2.35
2023-01-07T13:47:52.482Z,1.98
2023-01-07T13:50:22.141Z,0.98
2023-01-07T13:53:03.937Z,2.58
2023-01-07T13:55:33.027Z,1.60
2023-01-07T13:57:59.871Z,1.13
2023-01-07T14:01:09.535Z,1.50
2023-01-07T14:03:45.187Z,5.50
2023-01-07T14:06:20.888Z,1.55
2023-01-07T14:09:13.772Z,1.00
2023-01-07T14:11:49.346Z,1.70
2023-01-07T14:14:35.559Z,6.97
2023-01-07T14:17:26.979Z,2.40
2023-01-07T14:20:01.985Z,1.10
2023-01-07T14:22:46.699Z,1.20
2023-01-07T14:25:47.348Z,5.90
2023-01-07T14:28:39.444Z,2.70
2023-01-07T14:31:18.994Z,4.40
2023-01-07T14:33:58.190Z,3.47
2023-01-07T14:37:16.867Z,2.00
2023-01-07T14:39:45.541Z,2.22
2023-01-07T14:42:21.013Z,2.05
2023-01-07T14:44:50.064Z,2.35
2023-01-07T14:47:52.570Z,1.70
2023-01-07T14:50:40.792Z,1.90
2023-01-07T14:53:16.577Z,2.28
2023-01-07T14:55:46.151Z,3.97
2023-01-07T14:58:25.865Z,1.67
2023-01-07T15:01:11.000Z,2.03
2023-01-07T15:03:53.464Z,3.05
2023-01-07T15:12:15.541Z,4.75
2023-01-07T15:15:08.371Z,6.32
2023-01-07T15:17:39.376Z,13.30
2023-01-07T15:20:06.965Z,12.77
2023-01-07T15:22:47.647Z,8.68
2023-01-07T15:25:49.542Z,7.32
2023-01-07T15:28:25.851Z,9.00
2023-01-07T15:31:17.652Z,9.05
2023-01-07T15:33:51.206Z,10.87
2023-01-07T15:36:18.067Z,11.82
2023-01-07T15:38:54.305Z,11.15
2023-01-07T15:41:26.977Z,11.27
2023-01-07T15:43:54.394Z,10.20
2023-01-07T15:46:23.049Z,11.00
2023-01-07T15:49:08.430Z,11.18
2023-01-07T15:51:40.513Z,12.32
2023-01-07T15:54:24.170Z,11.48
2023-01-07T15:56:54.220Z,13.52
2023-01-07T15:59:33.233Z,13.05
2023-01-07T16:02:13.104Z,13.75
2023-01-07T16:04:42.001Z,12.77
2023-01-07T16:07:23.479Z,14.73
2023-01-07T16:09:51.254Z,17.08
2023-01-07T16:12:25.285Z,16.52
2023-01-07T16:14:51.902Z,17.88
2023-01-07T16:17:19.701Z,17.42
2023-01-07T16:19:46.512Z,17.55
2023-01-07T16:22:17.823Z,17.92
2023-01-07T16:24:53.133Z,16.08
2023-01-07T16:27:28.746Z,16.60
2023-01-07T16:29:58.346Z,18.40
2023-01-07T16:32:26.658Z,18.90
2023-01-07T16:34:58.304Z,17.20
2023-01-07T16:37:25.551Z,18.50
2023-01-07T16:39:53.551Z,18.80
2023-01-07T16:42:25.093Z,17.88
2023-01-07T16:44:54.743Z,22.63
2023-01-07T16:47:27.332Z,30.92
2023-01-07T16:50:00.964Z,31.73
2023-01-07T16:52:33.612Z,28.98
2023-01-07T16:55:00.419Z,27.52
2023-01-07T16:57:33.743Z,26.80
2023-01-07T17:00:04.226Z,25.20
2023-01-07T17:02:48.562Z,23.90
2023-01-07T17:05:22.596Z,25.58
2023-01-07T17:08:02.419Z,28.13
2023-01-07T17:10:35.072Z,28.75
2023-01-07T17:13:24.595Z,28.63
2023-01-07T17:15:51.497Z,31.13
2023-01-07T17:18:17.997Z,38.75
2023-01-07T17:20:44.661Z,38.45
2023-01-07T17:23:42.030Z,37.33
2023-01-07T17:26:11.394Z,28.65
2023-01-07T17:28:46.157Z,29.48
2023-01-07T17:31:12.895Z,28.48
2023-01-07T17:33:40.061Z,28.92
2023-01-07T17:36:12.253Z,28.95
2023-01-07T17:38:38.826Z,31.00
2023-01-07T17:41:08.924Z,29.25
2023-01-07T17:43:37.609Z,37.50
2023-01-07T17:46:14.727Z,37.15
2023-01-07T17:48:41.427Z,34.47
2023-01-07T17:51:11.511Z,37.78
2023-01-07T17:53:44.588Z,32.47
2023-01-07T17:56:11.357Z,30.65
2023-01-07T17:58:38.539Z,31.42
2023-01-07T18:01:10.552Z,32.15
2023-01-07T18:03:37.443Z,36.92
2023-01-07T18:06:12.036Z,34.67
2023-01-07T18:08:38.699Z,37.88
2023-01-07T18:11:23.839Z,34.22
2023-01-07T18:13:50.501Z,35.33
2023-01-07T18:16:17.125Z,27.33
2023-01-07T18:18:43.892Z,26.42
2023-01-07T18:21:11.860Z,26.25
2023-01-07T18:23:38.673Z,27.27
2023-01-07T18:26:06.396Z,28.67
2023-01-07T18:28:33.269Z,29.63
2023-01-07T18:30:59.934Z,30.80
2023-01-07T18:33:26.574Z,32.15
2023-01-07T18:35:53.617Z,32.63
2023-01-07T18:38:20.468Z,34.10
2023-01-07T18:40:47.072Z,34.17
2023-01-07T18:43:15.718Z,33.75
2023-01-07T18:45:44.040Z,32.92
2023-01-07T18:48:12.466Z,32.92
2023-01-07T18:50:43.418Z,33.55
2023-01-07T18:53:10.409Z,32.35
2023-01-07T18:55:38.690Z,37.15
2023-01-07T18:58:06.268Z,41.28
2023-01-07T19:00:32.929Z,37.33
2023-01-07T19:02:59.855Z,33.53
2023-01-07T19:05:28.074Z,33.50
2023-01-07T19:07:55.563Z,33.38
2023-01-07T19:10:23.903Z,33.97
2023-01-07T19:12:50.663Z,36.50
2023-01-07T19:15:17.931Z,33.67
2023-01-07T19:17:44.784Z,62.17
2023-01-07T19:20:12.616Z,51.15
2023-01-07T19:22:39.298Z,50.28
2023-01-07T19:25:06.489Z,51.83
2023-01-07T19:27:33.378Z,46.63
2023-01-07T19:29:59.974Z,51.50
2023-01-07T19:32:26.550Z,47.47
2023-01-07T19:34:53.225Z,44.13
2023-01-07T19:37:20.015Z,49.50
2023-01-07T19:39:46.672Z,56.78
2023-01-07T19:42:13.363Z,60.20
2023-01-07T19:44:41.665Z,51.65
2023-01-07T19:47:08.381Z,50.60
2023-01-07T19:49:36.091Z,46.97
2023-01-07T19:52:02.838Z,46.10
2023-01-07T19:54:29.483Z,49.50
2023-01-07T19:56:56.171Z,56.60
2023-01-07T19:59:23.013Z,64.72
2023-01-07T20:01:50.168Z,57.25
2023-01-07T20:04:17.088Z,57.80
2023-01-07T20:06:44.812Z,55.75
2023-01-07T20:09:11.694Z,53.75
2023-01-07T20:11:43.101Z,51.30
2023-01-07T20:14:10.683Z,49.63
2023-01-07T20:16:39.548Z,40.42
2023-01-07T20:19:06.399Z,41.58
2023-01-07T20:21:33.575Z,49.05
2023-01-07T20:24:00.480Z,34.28
2023-01-07T20:26:29.488Z,49.65
2023-01-07T20:28:57.653Z,45.40
2023-01-07T20:31:25.752Z,32.63
2023-01-07T20:33:55.502Z,31.45
2023-01-07T20:36:24.954Z,28.98
2023-01-07T20:38:51.906Z,28.20
2023-01-07T20:41:24.686Z,28.70
2023-01-07T20:43:53.927Z,27.88
2023-01-07T20:46:21.523Z,28.25
2023-01-07T20:48:48.697Z,26.52
2023-01-07T20:51:15.927Z,28.73
2023-01-07T20:53:43.203Z,30.52
2023-01-07T20:56:10.335Z,32.20
2023-01-07T20:58:38.214Z,34.63
2023-01-07T21:01:07.691Z,36.80
2023-01-07T21:03:35.674Z,47.05
2023-01-07T21:06:02.523Z,43.60
2023-01-07T21:08:29.232Z,44.22
2023-01-07T21:10:55.916Z,45.03
2023-01-07T21:13:23.353Z,41.25
2023-01-07T21:15:50.716Z,36.58
2023-01-07T21:18:17.882Z,38.55
2023-01-07T21:20:44.990Z,37.00
2023-01-07T21:23:12.240Z,36.60
2023-01-07T21:25:38.991Z,36.63
2023-01-07T21:28:06.759Z,34.03
2023-01-07T21:30:33.895Z,35.17
2023-01-07T21:33:00.659Z,35.47
2023-01-07T21:35:27.328Z,36.45
2023-01-07T21:37:55.058Z,34.22
2023-01-07T21:40:22.579Z,37.08
2023-01-07T21:42:49.270Z,36.10
2023-01-07T21:45:16.186Z,35.10
2023-01-07T21:47:42.823Z,33.75
2023-01-07T21:50:10.046Z,36.45
2023-01-07T21:52:37.234Z,40.15
2023-01-07T21:55:04.718Z,37.83
2023-01-07T21:57:31.367Z,37.83
2023-01-07T21:59:58.062Z,37.58
2023-01-07T22:02:24.702Z,33.00
2023-01-07T22:04:51.437Z,36.05
2023-01-07T22:07:19.903Z,35.33
2023-01-07T22:09:47.041Z,39.55
2023-01-07T22:12:14.922Z,38.85
2023-01-07T22:14:41.593Z,35.83
2023-01-07T22:17:09.604Z,32.25
2023-01-07T22:19:36.412Z,34.20
2023-01-07T22:22:03.191Z,32.10
2023-01-07T22:24:29.887Z,32.30
2023-01-07T22:26:57.443Z,31.38
2023-01-07T22:29:24.651Z,35.47
2023-01-07T22:31:52.864Z,36.92
2023-01-07T22:34:20.114Z,34.55
2023-01-07T22:37:01.655Z,31.50
2023-01-07T22:39:42.641Z,30.73
2023-01-07T22:42:14.655Z,31.52
2023-01-07T22:44:46.829Z,31.65
2023-01-07T22:49:42.143Z,29.88
2023-01-07T22:52:09.130Z,32.10
2023-01-07T22:54:36.295Z,32.80
2023-01-07T22:57:08.862Z,31.98
2023-01-07T22:59:35.827Z,35.03
2023-01-07T23:02:02.704Z,31.83
2023-01-07T23:04:29.604Z,33.00
2023-01-07T23:06:56.297Z,32.83
2023-01-07T23:09:22.859Z,30.30
2023-01-07T23:11:50.656Z,32.42
2023-01-07T23:14:20.163Z,32.85
2023-01-07T23:16:47.526Z,26.80
2023-01-07T23:19:14.846Z,27.70
2023-01-07T23:21:47.025Z,26.50
2023-01-07T23:24:14.495Z,25.83
2023-01-07T23:26:42.072Z,26.55
2023-01-07T23:29:09.016Z,31.70
2023-01-07T23:31:36.953Z,32.13
2023-01-07T23:34:03.976Z,32.85
2023-01-07T23:36:30.976Z,34.35
2023-01-07T23:38:57.827Z,41.42
2023-01-07T23:41:24.516Z,38.75
2023-01-07T23:43:51.278Z,39.53
2023-01-07T23:46:17.991Z,44.08
2023-01-07T23:48:44.589Z,57.25
2023-01-07T23:51:16.242Z,89.22
2023-01-07T23:53:43.932Z,81.43
2023-01-07T23:56:10.745Z,76.90
2023-01-07T23:58:38.185Z,65.88
